Terminal Aerodrome Forecast
Issued by NWS Denver/Boulder, CO

Home | Current Version | Previous Version | Text Only | Print | Product List | Glossary On
Versions: 1 2 3 4 5 6 7 8 9 10 11 12 13 14 15 16 17 18 19 20 21 22 23 24 25 26 27 28 29 30 31 32 33 34 35 36 37 38 39 40 41 42 43 44 45 46 47 48 49 50
000
FTUS45 KBOU 190641 AAA
TAFDEN
TAF AMD
KDEN 190641Z 1907/2012 VRB05KT P6SM SCT140 SCT200
     FM190900 20009KT P6SM SCT140 BKN200
     FM191700 VRB05KT P6SM FEW090 SCT140 BKN170
     FM192100 12011KT P6SM SCT070 BKN200 PROB30 1921/2001 VRB20G30KT
      -TSRA BKN070CB
     FM200100 31011KT P6SM VCTS SCT080CB BKN120
     FM200300 23009KT P6SM FEW080 SCT120 BKN170=

USA.gov is the U.S. government's official web portal to all federal, state and local government web resources and services.